KSEP/SEP METAR and TAF weather

Enter ICAO airport designator
Station Type Date Time Source
KSEP METAR 2019/06/17 04:30 UTC NOAA

KSEP 170430Z AUTO 01006KT 10SM 19/17 A2994 RMK AO2 T01850170


Station Type Date Time Source
KSEP Decoded METAR 2019/06/17 04:30 UTC NOAA

Stephenville, Clark Field Municipal Airport, TX, United States (KSEP) 32-13N 098-11W 402M
Jun 17, 2019 - 12:30 AM EDT / 2019.06.17 0430 UTC
Wind: from the N (010 degrees) at 7 MPH (6 KT):0
Visibility: 10 mile(s):0
Temperature: 65.3 F (18.5 C)
Dew Point: 62.6 F (17.0 C)
Relative Humidity: 90%
Pressure (altimeter): 29.94 in. Hg (1013 hPa)
ob: KSEP 170430Z AUTO 01006KT 10SM 19/17 A2994 RMK AO2 T01850170
cycle: 4

Station Type Date Time Source
KSEP TAF UTC NOAA

Error!

Example: see airport list